HS Bizet — A8MI3 — position and weather

sailwx.info

Track history (hours):
 
Tides and Currents Weather Stations Pressure Air Temp Water Temp Dewpoint Dewpoint Depression Visibility Wind Speed Wind Dir Waves Ship Positions

HS Bizet

Last reported at 2015-Jul-31 08:33 UTC. Time now 2015-Jul-31 09:27 UTC.
Position N 37°25' W 123°12'.

Length 246 m; draft 9.2 m.

Type: Ship (hazmat cat A). MMSI: 636091349.

Date/timePositionNaut miles runAvg speedWind from/ knotsBaromVisibWave heightAir tempDewpointWater temp
2015-Jul-31 08:33N 37°25' W 123°12'0 0.5
2015-Jul-31 07:33N 37°24' W 123°12'0 0.1
2015-Jul-31 06:33N 37°24' W 123°12'0 0.4
2015-Jul-31 05:33N 37°24' W 123°12'0 0.4
2015-Jul-31 04:33N 37°25' W 123°11'1 0.6
2015-Jul-31 03:33N 37°25' W 123°11'1 0.6
2015-Jul-31 02:33N 37°26' W 123°11'0 0.4
2015-Jul-31 01:34N 37°26' W 123°11'0 0.5
2015-Jul-31 00:34N 37°26' W 123°12'0 0.3
2015-Jul-30 23:33N 37°27' W 123°12'2 1.6
2015-Jul-30 22:33N 37°27' W 123°14'0 0.3
2015-Jul-30 21:33N 37°27' W 123°14'0 0.2
2015-Jul-30 20:33N 37°27' W 123°14'1 0.7
2015-Jul-30 19:33N 37°27' W 123°14'0 0.2
2015-Jul-30 18:33N 37°26' W 123°14'0 0.2
2015-Jul-30 17:33N 37°26' W 123°14'0 0.3
2015-Jul-30 16:34N 37°26' W 123°14'1 0.5
2015-Jul-30 15:34N 37°25' W 123°14'0 0.4
2015-Jul-30 14:33N 37°25' W 123°13'1 0.7
2015-Jul-30 13:33N 37°26' W 123°13'1 0.5
2015-Jul-30 12:33N 37°26' W 123°12'0 0.2
2015-Jul-30 11:33N 37°26' W 123°12'0 0.3
2015-Jul-30 10:34N 37°26' W 123°13'0 0.4
2015-Jul-30 09:33N 37°26' W 123°12'0 0.4
2015-Jul-30 08:33N 37°27' W 123°12'1 0.5
2015-Jul-30 07:33N 37°27' W 123°12'0 0.3
2015-Jul-30 06:34N 37°27' W 123°11'0 0.1
2015-Jul-30 05:33N 37°27' W 123°11'0 0.1
2015-Jul-30 04:33N 37°27' W 123°11'0 0.1
2015-Jul-30 03:34N 37°27' W 123°11'0 0.1
2015-Jul-30 02:33N 37°27' W 123°11'0 0.4
2015-Jul-30 01:33N 37°27' W 123°11'0 0.3
2015-Jul-30 00:33N 37°27' W 123°11'0 0.2
2015-Jul-29 23:33N 37°27' W 123°11'0 0.3
2015-Jul-29 22:33N 37°27' W 123°10'1 0.6
2015-Jul-29 21:34N 37°27' W 123°11'1 0.7
2015-Jul-29 20:33N 37°27' W 123°11'1 0.6
2015-Jul-29 19:33N 37°26' W 123°10'6 5.6
2015-Jul-29 18:33N 37°22' W 123°15'1211.9
2015-Jul-29 17:33N 37°13' W 123°24'1313.4
2015-Jul-29 16:33N 37°03' W 123°35'1313.3
2015-Jul-29 15:33N 36°53' W 123°47'1313.5
2015-Jul-29 14:33N 36°43' W 123°57'1414.1
2015-Jul-29 13:33N 36°32' W 124°09'1414.1
2015-Jul-29 12:33N 36°21' W 124°20'1413.9
2015-Jul-29 11:33N 36°11' W 124°32'1413.8
2015-Jul-29 10:33N 36°01' W 124°43'1413.7
2015-Jul-29 09:33N 35°51' W 124°54'1414.0
2015-Jul-29 08:33N 35°40' W 125°06'1413.8
2015-Jul-29 07:33N 35°30' W 125°17'1413.8
2015-Jul-29 06:33N 35°19' W 125°28'4613.6
2015-Jul-29 03:11N 34°41' W 125°58'3513.4
2015-Jul-29 00:34N 34°09' W 126°17'2013.7
2015-Jul-28 23:05N 33°52' W 126°28'3713.7
2015-Jul-28 20:24N 33°19' W 126°50'1213.5
2015-Jul-28 19:29N 33°08' W 126°56'6713.5
2015-Jul-28 14:31N 32°09' W 127°33'  
Track history (hours):
 
Tides and Currents Weather Stations Pressure Air Temp Water Temp Dewpoint Dewpoint Depression Visibility Wind Speed Wind Dir Waves Ship Positions

HS Bizet

Last reported at 2015-Jul-31 08:33 UTC. Time now 2015-Jul-31 09:27 UTC.
Position N 37°25' W 123°12'.

Length 246 m; draft 9.2 m.

Type: Ship (hazmat cat A). MMSI: 636091349.

Date/timePositionNaut miles runAvg speedWind from/ knotsBaromVisibWave heightAir tempDewpointWater temp
2015-Jul-31 08:33N 37°25' W 123°12'0 0.5
2015-Jul-31 07:33N 37°24' W 123°12'0 0.1
2015-Jul-31 06:33N 37°24' W 123°12'0 0.4
2015-Jul-31 05:33N 37°24' W 123°12'0 0.4
2015-Jul-31 04:33N 37°25' W 123°11'1 0.6
2015-Jul-31 03:33N 37°25' W 123°11'1 0.6
2015-Jul-31 02:33N 37°26' W 123°11'0 0.4
2015-Jul-31 01:34N 37°26' W 123°11'0 0.5
2015-Jul-31 00:34N 37°26' W 123°12'0 0.3
2015-Jul-30 23:33N 37°27' W 123°12'2 1.6
2015-Jul-30 22:33N 37°27' W 123°14'0 0.3
2015-Jul-30 21:33N 37°27' W 123°14'0 0.2
2015-Jul-30 20:33N 37°27' W 123°14'1 0.7
2015-Jul-30 19:33N 37°27' W 123°14'0 0.2
2015-Jul-30 18:33N 37°26' W 123°14'0 0.2
2015-Jul-30 17:33N 37°26' W 123°14'0 0.3
2015-Jul-30 16:34N 37°26' W 123°14'1 0.5
2015-Jul-30 15:34N 37°25' W 123°14'0 0.4
2015-Jul-30 14:33N 37°25' W 123°13'1 0.7
2015-Jul-30 13:33N 37°26' W 123°13'1 0.5
2015-Jul-30 12:33N 37°26' W 123°12'0 0.2
2015-Jul-30 11:33N 37°26' W 123°12'0 0.3
2015-Jul-30 10:34N 37°26' W 123°13'0 0.4
2015-Jul-30 09:33N 37°26' W 123°12'0 0.4
2015-Jul-30 08:33N 37°27' W 123°12'1 0.5
2015-Jul-30 07:33N 37°27' W 123°12'0 0.3
2015-Jul-30 06:34N 37°27' W 123°11'0 0.1
2015-Jul-30 05:33N 37°27' W 123°11'0 0.1
2015-Jul-30 04:33N 37°27' W 123°11'0 0.1
2015-Jul-30 03:34N 37°27' W 123°11'0 0.1
2015-Jul-30 02:33N 37°27' W 123°11'0 0.4
2015-Jul-30 01:33N 37°27' W 123°11'0 0.3
2015-Jul-30 00:33N 37°27' W 123°11'0 0.2
2015-Jul-29 23:33N 37°27' W 123°11'0 0.3
2015-Jul-29 22:33N 37°27' W 123°10'1 0.6
2015-Jul-29 21:34N 37°27' W 123°11'1 0.7
2015-Jul-29 20:33N 37°27' W 123°11'1 0.6
2015-Jul-29 19:33N 37°26' W 123°10'6 5.6
2015-Jul-29 18:33N 37°22' W 123°15'1211.9
2015-Jul-29 17:33N 37°13' W 123°24'1313.4
2015-Jul-29 16:33N 37°03' W 123°35'1313.3
2015-Jul-29 15:33N 36°53' W 123°47'1313.5
2015-Jul-29 14:33N 36°43' W 123°57'1414.1
2015-Jul-29 13:33N 36°32' W 124°09'1414.1
2015-Jul-29 12:33N 36°21' W 124°20'1413.9
2015-Jul-29 11:33N 36°11' W 124°32'1413.8
2015-Jul-29 10:33N 36°01' W 124°43'1413.7
2015-Jul-29 09:33N 35°51' W 124°54'1414.0
2015-Jul-29 08:33N 35°40' W 125°06'1413.8
2015-Jul-29 07:33N 35°30' W 125°17'1413.8
2015-Jul-29 06:33N 35°19' W 125°28'4613.6
2015-Jul-29 03:11N 34°41' W 125°58'3513.4
2015-Jul-29 00:34N 34°09' W 126°17'2013.7
2015-Jul-28 23:05N 33°52' W 126°28'3713.7
2015-Jul-28 20:24N 33°19' W 126°50'1213.5
2015-Jul-28 19:29N 33°08' W 126°56'6713.5
2015-Jul-28 14:31N 32°09' W 127°33'  

Dump ship's entire track history